Time;durP1;ratioP1;P1;durP2;ratioP2;P2;SDS_P1;SDS_P2;PMS_P1;PMS_P2;Temp;Humidity;BMP_temperature;BMP_pressure;BME280_temperature;BME280_humidity;BME280_pressure;Samples;Min_cycle;Max_cycle;Signal;HPM_P1;HPM_P2
2024/01/31 00:00:19;;;;;;;20.73;13.93;;;8.00;99.90;;;;;;5093494;28;20595;-75
2024/01/31 00:02:46;;;;;;;18.40;13.77;;;7.90;99.90;;;;;;5093810;28;20291;-75
2024/01/31 00:05:13;;;;;;;16.33;13.13;;;7.90;99.90;;;;;;5093915;28;20192;-74
2024/01/31 00:07:42;;;;;;;17.53;14.17;;;7.80;99.90;;;;;;5093701;28;20307;-75
2024/01/31 00:10:10;;;;;;;20.83;14.20;;;7.80;99.90;;;;;;5093596;28;20207;-74
2024/01/31 00:12:36;;;;;;;20.50;14.70;;;7.80;99.90;;;;;;5093355;28;20200;-74
2024/01/31 00:15:03;;;;;;;22.10;14.50;;;7.70;99.90;;;;;;5093654;28;20196;-74
2024/01/31 00:17:30;;;;;;;18.03;14.17;;;7.70;99.90;;;;;;5093592;28;20196;-75
2024/01/31 00:19:56;;;;;;;20.83;14.70;;;7.70;99.90;;;;;;5093191;28;20228;-74
2024/01/31 00:22:23;;;;;;;19.07;14.73;;;7.70;99.90;;;;;;5093409;28;20337;-75
2024/01/31 00:24:51;;;;;;;20.57;15.40;;;7.70;99.90;;;;;;5088286;28;20657;-75
2024/01/31 00:27:18;;;;;;;23.50;15.70;;;7.60;99.90;;;;;;5073253;28;20243;-75
2024/01/31 00:29:44;;;;;;;22.00;16.30;;;7.70;99.90;;;;;;5072918;28;20703;-74
2024/01/31 00:32:11;;;;;;;25.17;15.93;;;7.70;99.90;;;;;;5073197;28;20200;-74
2024/01/31 00:34:37;;;;;;;21.10;16.00;;;7.60;99.90;;;;;;5072883;28;20193;-74
2024/01/31 00:37:04;;;;;;;21.37;17.00;;;7.60;99.90;;;;;;5073064;28;20259;-74
2024/01/31 00:39:32;;;;;;;20.53;16.90;;;7.60;99.90;;;;;;5072708;28;20267;-74
2024/01/31 00:42:00;;;;;;;21.63;16.07;;;7.60;99.90;;;;;;5073031;28;20197;-74
2024/01/31 00:44:27;;;;;;;22.17;17.03;;;7.60;99.90;;;;;;5072808;28;20697;-74
2024/01/31 00:46:54;;;;;;;21.50;15.93;;;7.60;99.90;;;;;;5072418;28;20553;-74
2024/01/31 00:49:21;;;;;;;29.27;17.70;;;7.60;99.90;;;;;;5072815;28;20201;-74
2024/01/31 00:51:47;;;;;;;24.07;17.00;;;7.50;99.90;;;;;;5072714;28;20201;-74
2024/01/31 00:54:14;;;;;;;21.90;16.77;;;7.50;99.90;;;;;;5072728;28;20242;-75
2024/01/31 00:56:41;;;;;;;21.90;17.13;;;7.50;99.90;;;;;;5072871;28;20200;-74
2024/01/31 00:59:09;;;;;;;29.73;17.57;;;7.50;99.90;;;;;;5072762;28;20282;-74
2024/01/31 01:01:35;;;;;;;22.50;16.80;;;7.50;99.90;;;;;;5072750;28;20201;-74
2024/01/31 01:04:02;;;;;;;20.50;15.90;;;7.50;99.90;;;;;;5072551;28;20603;-74
2024/01/31 01:06:29;;;;;;;20.43;15.67;;;7.50;99.90;;;;;;5072556;28;20243;-74
2024/01/31 01:08:56;;;;;;;20.37;15.93;;;7.40;99.90;;;;;;5072546;28;20197;-74
2024/01/31 01:11:22;;;;;;;19.93;16.10;;;7.40;99.90;;;;;;5072733;28;20197;-74
2024/01/31 01:13:49;;;;;;;20.10;15.80;;;7.40;99.90;;;;;;5075174;28;20238;-75
2024/01/31 01:16:17;;;;;;;21.80;17.03;;;7.40;99.90;;;;;;5076779;28;20193;-75
2024/01/31 01:18:43;;;;;;;19.13;16.13;;;7.40;99.90;;;;;;5076554;28;20220;-74
2024/01/31 01:21:10;;;;;;;21.47;16.30;;;7.30;99.90;;;;;;5076531;28;20196;-74
2024/01/31 01:23:37;;;;;;;21.60;16.10;;;7.40;99.90;;;;;;5076623;28;20208;-74
2024/01/31 01:26:03;;;;;;;20.30;16.33;;;7.40;99.90;;;;;;5076431;28;20599;-75
2024/01/31 01:28:30;;;;;;;22.87;17.33;;;7.40;99.90;;;;;;5076248;28;20784;-74
2024/01/31 01:30:57;;;;;;;20.47;17.03;;;7.40;99.90;;;;;;5076429;28;20254;-73
2024/01/31 01:33:25;;;;;;;18.70;15.53;;;7.40;99.90;;;;;;5076363;28;20250;-74
2024/01/31 01:35:51;;;;;;;18.80;15.20;;;7.40;99.90;;;;;;5076287;28;20197;-74
2024/01/31 01:38:18;;;;;;;20.23;15.93;;;7.40;99.90;;;;;;5076275;28;20262;-74
2024/01/31 01:40:45;;;;;;;18.77;15.63;;;7.40;99.90;;;;;;5076393;28;20200;-74
2024/01/31 01:43:17;;;;;;;20.07;15.90;;;7.30;99.90;;;;;;5076257;28;20201;-73
2024/01/31 01:45:44;;;;;;;20.60;15.80;;;7.30;99.90;;;;;;5076193;28;20284;-73
2024/01/31 01:48:11;;;;;;;21.70;16.57;;;7.30;99.90;;;;;;5075936;28;20247;-74
2024/01/31 01:50:39;;;;;;;19.63;15.73;;;7.40;99.90;;;;;;5076166;28;20258;-74
2024/01/31 01:53:06;;;;;;;19.33;15.50;;;7.40;99.90;;;;;;5076039;28;20201;-74
2024/01/31 01:55:33;;;;;;;21.27;16.63;;;7.40;99.90;;;;;;5076064;28;20208;-74
2024/01/31 01:58:00;;;;;;;23.03;17.10;;;7.30;99.90;;;;;;5075657;28;20599;-74
2024/01/31 02:00:27;;;;;;;31.77;19.17;;;7.30;99.90;;;;;;5075571;28;20647;-73
2024/01/31 02:02:54;;;;;;;23.57;18.37;;;7.30;99.90;;;;;;5075690;28;20599;-74
2024/01/31 02:05:21;;;;;;;21.97;16.77;;;7.30;99.90;;;;;;5075756;28;20197;-74
2024/01/31 02:07:49;;;;;;;23.47;17.40;;;7.30;99.90;;;;;;5075516;28;20834;-74
2024/01/31 02:10:16;;;;;;;22.00;16.87;;;7.20;99.90;;;;;;5075529;28;20200;-74
2024/01/31 02:12:43;;;;;;;24.20;18.87;;;7.30;99.90;;;;;;5075676;28;20568;-74
2024/01/31 02:15:09;;;;;;;22.47;17.27;;;7.30;99.90;;;;;;5075554;28;20198;-75
2024/01/31 02:17:36;;;;;;;22.83;17.00;;;7.30;99.90;;;;;;5075393;28;20197;-74
2024/01/31 02:20:03;;;;;;;24.23;18.00;;;7.30;99.90;;;;;;5075528;28;20224;-74
2024/01/31 02:22:31;;;;;;;20.47;17.13;;;7.30;99.90;;;;;;5075404;28;20628;-74
2024/01/31 02:24:59;;;;;;;21.37;17.00;;;7.30;99.90;;;;;;5075358;28;20255;-74
2024/01/31 02:27:26;;;;;;;22.43;17.10;;;7.30;99.90;;;;;;5075329;28;20254;-74
2024/01/31 02:29:52;;;;;;;19.87;16.27;;;7.30;99.90;;;;;;5075142;28;20240;-73
2024/01/31 02:32:19;;;;;;;23.13;16.97;;;7.30;99.90;;;;;;5075267;28;20197;-74
2024/01/31 02:34:46;;;;;;;23.50;18.07;;;7.30;99.90;;;;;;5075384;28;20205;-74
2024/01/31 02:37:13;;;;;;;24.30;17.30;;;7.30;99.90;;;;;;5075357;28;20595;-74
2024/01/31 02:39:41;;;;;;;21.47;16.43;;;7.30;99.90;;;;;;5075108;28;20281;-74
2024/01/31 02:42:07;;;;;;;20.57;16.40;;;7.30;99.90;;;;;;5075394;28;20205;-75
2024/01/31 02:44:34;;;;;;;20.93;17.23;;;7.30;99.90;;;;;;5075077;28;20193;-75
2024/01/31 02:47:01;;;;;;;23.53;18.10;;;7.30;99.90;;;;;;5074969;28;20603;-74
2024/01/31 02:49:27;;;;;;;22.17;17.60;;;7.20;99.90;;;;;;5074943;28;20205;-74
2024/01/31 02:51:54;;;;;;;24.47;17.77;;;7.20;99.90;;;;;;5075090;28;20583;-74
2024/01/31 02:54:20;;;;;;;22.37;17.93;;;7.30;99.90;;;;;;5074902;28;20197;-73
2024/01/31 02:56:48;;;;;;;23.63;17.70;;;7.30;99.90;;;;;;5074820;28;20609;-73
2024/01/31 02:59:14;;;;;;;26.70;20.13;;;7.30;99.90;;;;;;5074745;28;20217;-74
2024/01/31 03:01:45;;;;;;;24.17;19.13;;;7.30;99.90;;;;;;5074966;28;20255;-74
2024/01/31 03:04:12;;;;;;;24.23;17.37;;;7.30;99.90;;;;;;5074910;28;20224;-74
2024/01/31 03:06:39;;;;;;;25.77;18.63;;;7.30;99.90;;;;;;5074740;28;20279;-74
2024/01/31 03:09:05;;;;;;;22.43;17.47;;;7.20;99.90;;;;;;5074686;28;20209;-74
2024/01/31 03:11:32;;;;;;;24.03;18.63;;;7.20;99.90;;;;;;5074485;28;20201;-74
2024/01/31 03:14:00;;;;;;;24.03;19.17;;;7.20;99.90;;;;;;5074784;28;20197;-74
2024/01/31 03:16:27;;;;;;;23.67;17.87;;;7.10;99.90;;;;;;5074645;28;20222;-74
2024/01/31 03:18:56;;;;;;;23.20;17.63;;;7.10;99.90;;;;;;5074351;28;20249;-74
2024/01/31 03:21:22;;;;;;;25.07;17.97;;;7.10;99.90;;;;;;5074483;28;20251;-74
2024/01/31 03:23:49;;;;;;;23.70;17.97;;;7.10;99.90;;;;;;5074265;28;20246;-74
2024/01/31 03:26:15;;;;;;;22.90;17.43;;;7.10;99.90;;;;;;5074192;28;20203;-74
2024/01/31 03:28:42;;;;;;;26.70;18.87;;;7.10;99.90;;;;;;5074119;28;20228;-74
2024/01/31 03:31:10;;;;;;;24.93;18.27;;;7.10;99.90;;;;;;5074271;28;20599;-74
2024/01/31 03:33:37;;;;;;;22.30;17.23;;;7.10;99.90;;;;;;5074316;28;20197;-74
2024/01/31 03:36:04;;;;;;;26.03;18.80;;;7.10;99.90;;;;;;5073515;28;20208;-74
2024/01/31 03:38:30;;;;;;;23.87;18.03;;;7.10;99.90;;;;;;5074007;28;20201;-74
2024/01/31 03:40:57;;;;;;;23.13;17.17;;;7.10;99.90;;;;;;5073811;28;20232;-74
2024/01/31 03:43:23;;;;;;;22.63;17.20;;;7.00;99.90;;;;;;5074122;28;20197;-74
2024/01/31 03:45:50;;;;;;;24.93;18.23;;;7.00;99.90;;;;;;5073902;28;20197;-74
2024/01/31 03:48:18;;;;;;;26.17;17.07;;;7.00;99.90;;;;;;5073927;28;20208;-74
2024/01/31 03:50:45;;;;;;;22.53;17.43;;;7.00;99.90;;;;;;5073823;28;20246;-74
2024/01/31 03:53:12;;;;;;;19.87;15.87;;;7.00;99.90;;;;;;5073523;28;20653;-74
2024/01/31 03:55:39;;;;;;;21.17;18.23;;;7.00;99.90;;;;;;5073979;28;20227;-74
2024/01/31 03:58:05;;;;;;;22.93;18.50;;;7.00;99.90;;;;;;5073908;28;20293;-74
2024/01/31 04:00:32;;;;;;;27.53;18.73;;;7.00;99.90;;;;;;5073656;28;20225;-74
2024/01/31 04:02:58;;;;;;;23.60;17.73;;;7.00;99.90;;;;;;5073546;28;20227;-75
2024/01/31 04:05:26;;;;;;;25.63;18.60;;;7.00;99.90;;;;;;5073494;28;20580;-74
2024/01/31 04:07:53;;;;;;;22.23;17.73;;;7.00;99.90;;;;;;5073425;28;20227;-75
2024/01/31 04:10:20;;;;;;;25.43;18.10;;;7.00;99.90;;;;;;5073421;28;20200;-74
2024/01/31 04:12:47;;;;;;;24.60;17.00;;;6.90;99.90;;;;;;5073716;28;20205;-73
2024/01/31 04:15:14;;;;;;;25.33;18.03;;;6.90;99.90;;;;;;5073571;28;20232;-74
2024/01/31 04:17:41;;;;;;;23.87;18.43;;;6.90;99.90;;;;;;5073421;28;20196;-74
2024/01/31 04:20:08;;;;;;;24.13;17.13;;;6.90;99.90;;;;;;5073222;28;20221;-74
2024/01/31 04:22:36;;;;;;;22.23;17.83;;;6.90;99.90;;;;;;5073204;28;20291;-74
2024/01/31 04:25:03;;;;;;;24.20;17.63;;;6.90;99.90;;;;;;5073334;28;20201;-73
2024/01/31 04:27:30;;;;;;;22.07;16.83;;;6.80;99.90;;;;;;5073009;28;20661;-75
2024/01/31 04:29:57;;;;;;;24.00;17.77;;;6.80;99.90;;;;;;5073190;28;20201;-74
2024/01/31 04:32:24;;;;;;;25.23;17.83;;;6.90;99.90;;;;;;5073210;28;20246;-74
2024/01/31 04:34:51;;;;;;;23.77;17.23;;;6.90;99.90;;;;;;5072949;28;20220;-74
2024/01/31 04:37:17;;;;;;;22.97;17.70;;;6.80;99.90;;;;;;5073405;28;20714;-74
2024/01/31 04:39:50;;;;;;;23.50;17.77;;;6.80;99.90;;;;;;5085381;28;20271;-74
2024/01/31 04:42:17;;;;;;;24.50;19.00;;;6.80;99.90;;;;;;5074042;28;20541;-74
2024/01/31 04:44:45;;;;;;;29.60;22.23;;;6.80;99.90;;;;;;5073614;28;20201;-73
2024/01/31 04:47:12;;;;;;;26.40;19.23;;;6.80;99.90;;;;;;5072917;28;20246;-74
2024/01/31 04:49:38;;;;;;;23.93;18.77;;;6.80;99.90;;;;;;5072886;28;20258;-74
2024/01/31 04:52:06;;;;;;;25.97;19.20;;;6.80;99.90;;;;;;5073146;28;20197;-74
2024/01/31 04:54:32;;;;;;;29.23;20.13;;;6.80;99.90;;;;;;5072914;28;20197;-74
2024/01/31 04:57:00;;;;;;;25.43;19.73;;;6.90;99.90;;;;;;5072702;28;20196;-73
2024/01/31 04:59:27;;;;;;;28.17;20.60;;;6.90;99.90;;;;;;5072858;28;20193;-74
2024/01/31 05:01:54;;;;;;;27.00;19.07;;;7.00;99.90;;;;;;5072731;28;20201;-74
2024/01/31 05:04:20;;;;;;;26.67;19.73;;;7.10;99.90;;;;;;5072598;28;20663;-74
2024/01/31 05:06:47;;;;;;;27.20;20.20;;;7.00;99.90;;;;;;5072518;28;20553;-74
2024/01/31 05:09:13;;;;;;;23.93;18.20;;;7.00;99.90;;;;;;5072747;28;20240;-74
2024/01/31 05:11:40;;;;;;;23.97;18.47;;;7.10;99.90;;;;;;5072378;28;20587;-74
2024/01/31 05:14:09;;;;;;;23.63;17.27;;;7.10;99.90;;;;;;5072561;28;20211;-74
2024/01/31 05:16:38;;;;;;;25.67;18.70;;;7.10;99.90;;;;;;5072444;28;20292;-74
2024/01/31 05:19:05;;;;;;;22.67;17.87;;;7.20;99.90;;;;;;5072665;28;20557;-73
2024/01/31 05:21:32;;;;;;;26.27;19.10;;;7.10;99.90;;;;;;5072477;28;20552;-75
2024/01/31 05:23:59;;;;;;;25.40;18.50;;;7.20;99.90;;;;;;5072506;28;20258;-75
2024/01/31 05:26:25;;;;;;;23.43;17.67;;;7.20;99.90;;;;;;5072523;28;20197;-75
2024/01/31 05:28:52;;;;;;;22.70;17.37;;;7.10;99.90;;;;;;5072408;28;20228;-75
2024/01/31 05:31:20;;;;;;;24.70;17.03;;;7.10;99.90;;;;;;5072612;28;20201;-74
2024/01/31 05:33:46;;;;;;;29.33;18.07;;;7.10;99.90;;;;;;5072623;28;20216;-74
2024/01/31 05:36:13;;;;;;;25.23;17.57;;;7.10;99.90;;;;;;5072581;28;20247;-75
2024/01/31 05:38:41;;;;;;;23.00;17.23;;;7.00;99.90;;;;;;5072445;28;20201;-74
2024/01/31 05:41:09;;;;;;;24.17;17.10;;;7.00;99.90;;;;;;5072445;28;20274;-74
2024/01/31 05:43:36;;;;;;;20.93;17.20;;;7.00;99.90;;;;;;5072369;28;20202;-74
2024/01/31 05:46:03;;;;;;;26.20;17.93;;;7.00;99.90;;;;;;5073274;28;20254;-75
2024/01/31 05:48:31;;;;;;;25.00;18.63;;;7.10;99.90;;;;;;5073352;28;20237;-75
2024/01/31 05:50:57;;;;;;;27.43;18.23;;;7.10;99.90;;;;;;5072639;28;20642;-75
2024/01/31 05:53:24;;;;;;;28.60;18.73;;;7.20;99.90;;;;;;5072680;28;20197;-73
2024/01/31 05:55:51;;;;;;;25.97;19.47;;;7.20;99.90;;;;;;5072276;28;20254;-74
2024/01/31 05:58:18;;;;;;;30.07;20.07;;;7.20;99.90;;;;;;5072210;28;20591;-74
2024/01/31 06:00:46;;;;;;;27.53;20.90;;;7.30;99.90;;;;;;5075802;28;20320;-74
2024/01/31 06:03:15;;;;;;;29.83;22.30;;;7.30;99.90;;;;;;5075949;28;20197;-74
2024/01/31 06:05:43;;;;;;;33.73;23.93;;;7.30;99.90;;;;;;5075792;28;20197;-74
2024/01/31 06:08:09;;;;;;;38.40;26.67;;;7.20;99.90;;;;;;5075778;28;20200;-74
2024/01/31 06:10:35;;;;;;;38.53;26.33;;;7.20;99.90;;;;;;5075630;28;20648;-75
2024/01/31 06:13:02;;;;;;;38.00;27.17;;;7.10;99.90;;;;;;5075537;28;20246;-74
2024/01/31 06:15:29;;;;;;;38.53;27.37;;;7.00;99.90;;;;;;5075739;28;20205;-74
2024/01/31 06:17:56;;;;;;;36.10;27.93;;;7.00;99.90;;;;;;5075689;28;20206;-74
2024/01/31 06:20:22;;;;;;;37.00;25.83;;;7.00;99.90;;;;;;5075603;28;20220;-75
2024/01/31 06:22:50;;;;;;;33.30;24.30;;;6.80;99.90;;;;;;5075505;28;20688;-75
2024/01/31 06:25:18;;;;;;;29.57;21.10;;;6.70;99.90;;;;;;5075432;28;20197;-74
2024/01/31 06:27:44;;;;;;;26.40;19.47;;;6.60;99.90;;;;;;5075283;28;20657;-75
2024/01/31 06:30:19;;;;;;;23.77;18.33;;;6.60;99.90;;;;;;5075636;28;20262;-74
2024/01/31 06:32:47;;;;;;;23.60;17.77;;;6.50;99.90;;;;;;5075377;28;20533;-74
2024/01/31 06:35:14;;;;;;;23.90;17.17;;;6.40;99.90;;;;;;5075238;28;20203;-74
2024/01/31 06:37:40;;;;;;;23.30;17.10;;;6.30;99.90;;;;;;5075083;28;20201;-74
2024/01/31 06:40:09;;;;;;;23.23;16.90;;;6.30;99.90;;;;;;5075362;28;20197;-74
2024/01/31 06:42:36;;;;;;;19.90;15.67;;;6.30;99.90;;;;;;5075131;28;20201;-73
2024/01/31 06:45:03;;;;;;;20.83;16.23;;;6.20;99.90;;;;;;5075078;28;20608;-74
2024/01/31 06:47:29;;;;;;;21.43;15.73;;;6.20;99.90;;;;;;5075045;28;20201;-74
2024/01/31 06:49:56;;;;;;;22.47;15.90;;;6.20;99.90;;;;;;5076034;28;20194;-73
2024/01/31 06:52:23;;;;;;;21.43;15.83;;;6.20;99.90;;;;;;5075192;28;20243;-74
2024/01/31 06:54:50;;;;;;;20.57;15.60;;;6.20;99.90;;;;;;5075197;28;20212;-74
2024/01/31 06:57:18;;;;;;;19.67;15.57;;;6.10;99.90;;;;;;5075192;28;20204;-74
2024/01/31 06:59:44;;;;;;;19.57;15.80;;;6.10;99.90;;;;;;5074872;28;20201;-74
2024/01/31 07:02:11;;;;;;;24.17;16.77;;;6.10;99.90;;;;;;5074582;28;20632;-75
2024/01/31 07:04:37;;;;;;;19.97;15.93;;;6.00;99.90;;;;;;5074996;28;20254;-75
2024/01/31 07:07:04;;;;;;;22.47;15.43;;;6.00;99.90;;;;;;5074743;28;20205;-75
2024/01/31 07:09:33;;;;;;;21.23;16.13;;;6.00;99.90;;;;;;5075898;28;20246;-74
2024/01/31 07:12:00;;;;;;;19.90;15.47;;;6.00;99.90;;;;;;5074158;28;20602;-74
2024/01/31 07:14:28;;;;;;;21.13;14.70;;;6.00;99.90;;;;;;5074646;28;20255;-76
2024/01/31 07:16:55;;;;;;;19.43;14.77;;;6.00;99.90;;;;;;5074792;28;20648;-74
2024/01/31 07:19:22;;;;;;;23.67;15.40;;;6.00;99.90;;;;;;5074378;28;20223;-74
2024/01/31 07:21:48;;;;;;;20.60;14.80;;;6.00;99.90;;;;;;5074216;28;20264;-74
2024/01/31 07:24:15;;;;;;;20.40;15.40;;;6.00;99.90;;;;;;5074558;28;20212;-73
2024/01/31 07:26:42;;;;;;;19.23;14.37;;;5.90;99.90;;;;;;5074299;28;20232;-73
2024/01/31 07:29:10;;;;;;;20.47;14.20;;;5.90;99.90;;;;;;5074027;28;20232;-74
2024/01/31 07:31:38;;;;;;;23.30;16.53;;;5.90;99.90;;;;;;5074212;28;20228;-74
2024/01/31 07:34:05;;;;;;;22.67;15.37;;;5.90;99.90;;;;;;5074076;28;20668;-73
2024/01/31 07:36:31;;;;;;;19.10;15.50;;;5.90;99.90;;;;;;5073985;28;20669;-73
2024/01/31 07:38:58;;;;;;;21.20;15.27;;;5.90;99.90;;;;;;5074190;28;20204;-75
2024/01/31 07:41:24;;;;;;;21.27;15.17;;;5.90;99.90;;;;;;5074077;28;20282;-74
2024/01/31 07:43:51;;;;;;;23.40;16.00;;;5.90;99.90;;;;;;5073909;28;20203;-76
2024/01/31 07:46:18;;;;;;;24.03;16.43;;;5.90;99.90;;;;;;5073906;28;20201;-74
2024/01/31 07:48:46;;;;;;;22.20;15.60;;;5.90;99.90;;;;;;5073726;28;20239;-75
2024/01/31 07:51:13;;;;;;;22.57;16.13;;;5.90;99.90;;;;;;5073837;28;20243;-74
2024/01/31 07:53:40;;;;;;;25.47;16.73;;;5.90;99.90;;;;;;5073983;28;20202;-74
2024/01/31 07:56:07;;;;;;;25.57;18.00;;;5.90;99.90;;;;;;5074134;28;20604;-74
2024/01/31 07:58:33;;;;;;;24.53;17.23;;;5.90;99.90;;;;;;5074276;28;20246;-75
2024/01/31 08:01:01;;;;;;;26.20;16.80;;;5.80;99.90;;;;;;5074224;28;20713;-76
2024/01/31 08:03:28;;;;;;;23.43;17.87;;;5.80;99.90;;;;;;5074587;28;20205;-77
2024/01/31 08:05:56;;;;;;;22.57;17.00;;;5.90;99.90;;;;;;5074656;28;20197;-77
2024/01/31 08:08:23;;;;;;;27.07;18.40;;;5.90;99.90;;;;;;5074286;28;20197;-78
2024/01/31 08:10:49;;;;;;;24.43;17.77;;;5.80;99.90;;;;;;5073991;28;20230;-79
2024/01/31 08:13:16;;;;;;;24.53;18.10;;;5.80;99.90;;;;;;5073862;28;20235;-78
2024/01/31 08:15:43;;;;;;;28.83;17.77;;;5.80;99.90;;;;;;5073646;28;20544;-76
2024/01/31 08:18:09;;;;;;;28.20;18.40;;;5.70;99.90;;;;;;5073696;28;20529;-78
2024/01/31 08:20:36;;;;;;;25.80;16.80;;;5.80;99.90;;;;;;5073598;28;20197;-76
2024/01/31 08:23:04;;;;;;;27.20;16.43;;;5.80;99.90;;;;;;5073168;28;20201;-75
2024/01/31 08:25:31;;;;;;;25.13;16.30;;;5.90;99.90;;;;;;5073532;28;20246;-75
2024/01/31 08:27:58;;;;;;;25.97;16.33;;;5.90;99.90;;;;;;5073047;28;20270;-75
2024/01/31 08:30:26;;;;;;;22.87;15.23;;;5.90;99.90;;;;;;5073164;28;20242;-74
2024/01/31 08:32:53;;;;;;;24.10;16.30;;;5.90;99.90;;;;;;5073942;28;20201;-75
2024/01/31 08:35:19;;;;;;;22.53;14.37;;;5.90;99.90;;;;;;5093321;28;20643;-75
2024/01/31 08:37:46;;;;;;;20.93;14.97;;;5.90;99.90;;;;;;5093450;28;20251;-74
2024/01/31 08:40:14;;;;;;;24.60;15.63;;;6.00;99.90;;;;;;5093266;28;20196;-75
2024/01/31 08:42:41;;;;;;;24.27;16.17;;;6.00;99.90;;;;;;5093277;28;20232;-76
2024/01/31 08:45:10;;;;;;;21.53;14.77;;;6.00;99.90;;;;;;5093062;28;20242;-74
2024/01/31 08:47:37;;;;;;;21.33;15.13;;;6.00;99.90;;;;;;5093360;28;20204;-73
2024/01/31 08:50:04;;;;;;;19.40;14.57;;;6.10;99.90;;;;;;5093142;28;20200;-74
2024/01/31 08:52:30;;;;;;;23.77;16.33;;;6.20;99.90;;;;;;5092925;28;20204;-74
2024/01/31 08:54:57;;;;;;;19.57;14.43;;;6.30;99.90;;;;;;5092976;28;20196;-74
2024/01/31 08:57:25;;;;;;;17.63;13.10;;;6.40;99.90;;;;;;5092843;28;20199;-74
2024/01/31 08:59:52;;;;;;;20.17;14.70;;;6.50;99.90;;;;;;5093095;28;20298;-76
2024/01/31 09:02:19;;;;;;;18.53;14.33;;;6.60;99.90;;;;;;5092927;28;20228;-75
2024/01/31 09:04:46;;;;;;;17.47;13.63;;;6.80;99.90;;;;;;5093234;28;20196;-77
2024/01/31 09:07:12;;;;;;;18.77;13.80;;;6.80;99.90;;;;;;5091019;28;20552;-78
2024/01/31 09:09:39;;;;;;;17.00;11.83;;;6.80;99.90;;;;;;5092046;28;20534;-77
2024/01/31 09:12:06;;;;;;;15.33;11.47;;;6.80;99.90;;;;;;5092183;28;20192;-77
2024/01/31 09:14:34;;;;;;;15.67;10.47;;;6.70;99.90;;;;;;5093065;28;20205;-77
2024/01/31 09:17:01;;;;;;;14.57;10.90;;;6.60;99.90;;;;;;5092806;28;20250;-77
2024/01/31 09:19:28;;;;;;;13.23;9.93;;;6.60;99.90;;;;;;5092702;28;20258;-77
2024/01/31 09:21:55;;;;;;;14.03;9.97;;;6.60;99.90;;;;;;5092471;28;20238;-78
2024/01/31 09:24:21;;;;;;;12.30;9.63;;;6.50;99.90;;;;;;5089809;28;20205;-71
2024/01/31 09:26:48;;;;;;;13.63;10.33;;;6.60;99.90;;;;;;5084692;28;20290;-75
2024/01/31 09:29:14;;;;;;;16.37;11.53;;;6.60;99.90;;;;;;5092139;28;20602;-75
2024/01/31 09:31:42;;;;;;;15.90;11.00;;;6.60;99.90;;;;;;5092194;28;20249;-76
2024/01/31 09:34:09;;;;;;;13.70;9.80;;;6.70;99.90;;;;;;5093869;28;20533;-75
2024/01/31 09:36:36;;;;;;;15.03;10.20;;;6.80;99.90;;;;;;5096406;28;20188;-75
2024/01/31 09:39:03;;;;;;;17.27;11.63;;;6.80;99.90;;;;;;5096636;28;20215;-75
2024/01/31 09:41:30;;;;;;;19.20;11.70;;;6.80;99.90;;;;;;5096534;28;20234;-75
2024/01/31 09:43:57;;;;;;;11.87;8.07;;;6.90;99.90;;;;;;5096768;28;20226;-77
2024/01/31 09:46:24;;;;;;;13.90;9.50;;;6.80;99.90;;;;;;5096161;28;20593;-74
2024/01/31 09:48:52;;;;;;;13.20;9.53;;;7.00;99.90;;;;;;5095980;28;20659;-75
2024/01/31 09:51:20;;;;;;;13.70;11.23;;;7.20;99.90;;;;;;5095995;28;20196;-75
2024/01/31 09:53:50;;;;;;;15.07;10.83;;;7.30;99.90;;;;;;5096134;28;20196;-75
2024/01/31 09:56:17;;;;;;;13.50;10.27;;;7.30;99.90;;;;;;5096026;28;20242;-75
2024/01/31 09:58:43;;;;;;;10.63;9.07;;;7.40;99.90;;;;;;5096106;28;20208;-75
2024/01/31 10:01:11;;;;;;;13.23;9.50;;;7.40;99.90;;;;;;5096074;28;20184;-75
2024/01/31 10:03:37;;;;;;;14.03;9.60;;;7.30;99.90;;;;;;5095918;28;20230;-76
2024/01/31 10:06:06;;;;;;;15.67;10.50;;;7.30;99.90;;;;;;5095610;28;20188;-78
2024/01/31 10:08:32;;;;;;;12.37;9.60;;;7.40;99.90;;;;;;5096199;28;20205;-74
2024/01/31 10:11:00;;;;;;;12.30;10.27;;;7.50;99.90;;;;;;5096022;28;20200;-75
2024/01/31 10:13:27;;;;;;;11.27;9.07;;;7.60;99.90;;;;;;5094933;28;20257;-75
2024/01/31 10:15:54;;;;;;;16.43;9.33;;;7.60;99.90;;;;;;5095726;28;20200;-75
2024/01/31 10:18:22;;;;;;;11.60;8.37;;;7.80;99.90;;;;;;5094684;28;20197;-74
2024/01/31 10:20:51;;;;;;;12.77;8.83;;;7.90;99.90;;;;;;5094756;28;20547;-74
2024/01/31 10:23:19;;;;;;;11.80;7.87;;;7.90;99.90;;;;;;5095444;28;20637;-75
2024/01/31 10:25:46;;;;;;;11.27;8.20;;;7.90;99.90;;;;;;5095595;28;20207;-74
2024/01/31 10:28:18;;;;;;;8.90;6.13;;;8.00;99.90;;;;;;5095184;28;20228;-74
2024/01/31 10:30:45;;;;;;;8.87;6.03;;;8.20;99.90;;;;;;5095119;28;20197;-74
2024/01/31 10:33:12;;;;;;;8.13;5.97;;;8.60;99.90;;;;;;5095209;28;20279;-75
2024/01/31 10:35:41;;;;;;;6.30;5.57;;;9.00;99.90;;;;;;5095444;28;20200;-76
2024/01/31 10:38:08;;;;;;;8.27;6.53;;;9.10;99.90;;;;;;5094953;28;20193;-75
2024/01/31 10:40:37;;;;;;;7.73;6.13;;;9.10;99.90;;;;;;5095190;28;20249;-74
2024/01/31 10:43:06;;;;;;;9.13;6.40;;;8.90;99.90;;;;;;5095128;28;20224;-75
2024/01/31 10:45:33;;;;;;;9.03;6.60;;;8.90;99.90;;;;;;5094113;28;20204;-75
2024/01/31 10:48:00;;;;;;;7.37;6.47;;;9.00;99.90;;;;;;5095218;28;20200;-73
2024/01/31 10:50:27;;;;;;;9.60;6.57;;;9.00;99.90;;;;;;5095257;28;20629;-74
2024/01/31 10:52:55;;;;;;;8.63;7.17;;;8.80;99.90;;;;;;5095260;28;20200;-73
2024/01/31 10:55:23;;;;;;;9.57;7.27;;;8.60;99.90;;;;;;5095125;28;20196;-75
2024/01/31 10:57:51;;;;;;;7.93;6.57;;;8.70;99.90;;;;;;5095219;28;20234;-74
2024/01/31 11:00:23;;;;;;;8.40;6.77;;;8.80;99.90;;;;;;5094315;28;20265;-74
2024/01/31 11:02:50;;;;;;;7.80;6.57;;;9.10;99.90;;;;;;5095333;28;20220;-73
2024/01/31 11:05:17;;;;;;;9.37;6.63;;;9.30;99.90;;;;;;5095189;28;20560;-73
2024/01/31 11:07:47;;;;;;;9.40;6.43;;;9.40;99.90;;;;;;5095161;28;20208;-74
2024/01/31 11:10:17;;;;;;;7.00;5.93;;;9.40;99.90;;;;;;5094836;28;20196;-73
2024/01/31 11:12:44;;;;;;;8.57;6.60;;;9.40;99.90;;;;;;5100446;28;20218;-74
2024/01/31 11:15:12;;;;;;;6.67;5.83;;;9.60;99.90;;;;;;5094878;28;20313;-73
2024/01/31 11:17:44;;;;;;;8.43;7.43;;;10.00;99.90;;;;;;5094840;28;20196;-73
2024/01/31 11:20:13;;;;;;;7.07;6.17;;;10.10;99.90;;;;;;5094689;28;20683;-75
2024/01/31 11:22:41;;;;;;;7.80;5.50;;;10.20;99.90;;;;;;5094424;28;20706;-75
2024/01/31 11:25:09;;;;;;;7.10;5.60;;;10.00;99.90;;;;;;5094595;28;20200;-74
2024/01/31 11:27:34;;;;;;;7.90;5.97;;;10.10;99.90;;;;;;5094145;28;20197;-74
2024/01/31 11:30:03;;;;;;;6.43;5.20;;;10.20;99.90;;;;;;5094889;28;20666;-75
2024/01/31 11:32:30;;;;;;;7.57;6.27;;;10.70;99.90;;;;;;5094500;28;20203;-75
2024/01/31 11:35:04;;;;;;;6.87;5.90;;;10.80;99.90;;;;;;5094550;28;20613;-76
2024/01/31 11:37:31;;;;;;;7.07;6.10;;;11.10;99.90;;;;;;5094619;28;20279;-76
2024/01/31 11:39:58;;;;;;;8.97;5.87;;;11.30;99.90;;;;;;5094319;28;20196;-76
2024/01/31 11:42:25;;;;;;;7.30;5.60;;;11.30;99.90;;;;;;5094039;28;20224;-75
2024/01/31 11:44:52;;;;;;;8.40;6.10;;;11.20;99.90;;;;;;5094332;28;20199;-76
2024/01/31 11:47:19;;;;;;;8.60;6.57;;;11.20;99.90;;;;;;5094271;28;20668;-76
2024/01/31 11:49:47;;;;;;;8.93;6.70;;;11.10;99.90;;;;;;5075717;28;20200;-77
2024/01/31 11:52:13;;;;;;;10.97;7.20;;;10.90;99.90;;;;;;5094036;28;20200;-76
2024/01/31 11:54:40;;;;;;;7.77;6.87;;;10.90;99.90;;;;;;5094064;28;20207;-76
2024/01/31 11:57:07;;;;;;;9.70;7.23;;;10.40;99.90;;;;;;5093824;28;20275;-76
2024/01/31 11:59:34;;;;;;;11.13;7.67;;;10.60;99.90;;;;;;5094181;28;20250;-77
2024/01/31 12:02:00;;;;;;;9.07;7.40;;;10.60;99.90;;;;;;5093806;28;20695;-77
2024/01/31 12:04:27;;;;;;;10.97;7.77;;;10.50;99.90;;;;;;5093963;28;20589;-74
2024/01/31 12:07:05;;;;;;;11.07;6.73;;;10.20;99.90;;;;;;5093856;28;20277;-76
2024/01/31 12:09:32;;;;;;;12.30;7.23;;;10.10;99.90;;;;;;5093974;28;20638;-76
2024/01/31 12:11:59;;;;;;;10.57;7.53;;;10.00;99.90;;;;;;5093877;28;20699;-76
2024/01/31 12:14:26;;;;;;;10.77;7.10;;;10.10;99.90;;;;;;5094044;28;20598;-77
2024/01/31 12:16:53;;;;;;;9.20;7.37;;;10.40;99.90;;;;;;5094004;28;20598;-78
2024/01/31 12:19:20;;;;;;;13.43;7.40;;;10.40;99.90;;;;;;5093764;28;20253;-77
2024/01/31 12:21:46;;;;;;;8.93;7.70;;;10.60;99.90;;;;;;5093548;28;20196;-76
2024/01/31 12:24:14;;;;;;;8.33;7.13;;;10.70;99.90;;;;;;5093905;28;20200;-77
2024/01/31 12:26:41;;;;;;;11.73;7.40;;;10.50;99.90;;;;;;5093647;28;20196;-76
2024/01/31 12:29:08;;;;;;;9.63;7.50;;;10.60;99.90;;;;;;5093254;28;20228;-72
2024/01/31 12:31:35;;;;;;;11.90;7.70;;;10.60;99.90;;;;;;5092845;28;20673;-75
2024/01/31 12:34:02;;;;;;;11.83;7.53;;;10.70;99.90;;;;;;5092912;28;20575;-75
2024/01/31 12:36:28;;;;;;;12.37;7.97;;;10.80;99.90;;;;;;5093155;28;20262;-74